Time;durP1;ratioP1;P1;durP2;ratioP2;P2;SDS_P1;SDS_P2;PMS_P1;PMS_P2;Temp;Humidity;BMP_temperature;BMP_pressure;BME280_temperature;BME280_humidity;BME280_pressure;Samples;Min_cycle;Max_cycle;Signal;HPM_P1;HPM_P2
2022/03/21 00:01:45;;;;;;;69.50;27.10;;;;;;;-3.62;58.34;103223.14;84742;1317;22724;-71
2022/03/21 00:03:54;;;;;;;68.90;30.20;;;;;;;-3.65;58.37;103222.45;84738;1325;25287;-71
2022/03/21 00:06:03;;;;;;;74.80;27.90;;;;;;;-3.67;58.25;103220.62;84096;1326;1002944;-71
2022/03/21 00:08:17;;;;;;;76.30;29.90;;;;;;;-3.70;58.39;103219.05;84757;1326;24991;-71
2022/03/21 00:10:30;;;;;;;68.10;28.80;;;;;;;-3.74;58.41;103218.13;84772;1325;24932;-72
2022/03/21 00:12:41;;;;;;;71.60;30.20;;;;;;;-3.76;58.47;103216.56;84799;1327;22619;-71
2022/03/21 00:14:49;;;;;;;66.40;27.50;;;;;;;-3.80;58.68;103220.27;84766;1326;23810;-71
2022/03/21 00:16:59;;;;;;;77.70;29.30;;;;;;;-3.83;58.99;103220.75;84093;1327;1003567;-77
2022/03/21 00:19:09;;;;;;;67.90;28.80;;;;;;;-3.87;59.09;103220.48;84049;1325;1003897;-75
2022/03/21 00:21:22;;;;;;;79.80;30.50;;;;;;;-3.90;59.18;103223.85;84757;1326;24247;-76
2022/03/21 00:23:35;;;;;;;94.90;36.50;;;;;;;-3.91;59.64;103219.88;84736;1326;22591;-76
2022/03/21 00:25:47;;;;;;;92.10;36.60;;;;;;;-3.88;59.70;103219.89;84740;1326;24137;-76
2022/03/21 00:27:58;;;;;;;92.70;36.70;;;;;;;-3.90;59.24;103221.29;84751;1326;22888;-77
2022/03/21 00:30:09;;;;;;;88.90;37.60;;;;;;;-3.93;59.42;103220.08;84782;1319;22677;-78
2022/03/21 00:32:18;;;;;;;93.80;35.00;;;;;;;-3.97;59.56;103222.38;84794;1327;22597;-76
2022/03/21 00:34:30;;;;;;;92.60;36.00;;;;;;;-4.00;59.56;103219.47;84753;1326;24001;-71
2022/03/21 00:36:41;;;;;;;80.90;32.20;;;;;;;-4.01;59.68;103221.75;84816;1327;22819;-72
2022/03/21 00:38:50;;;;;;;84.70;34.10;;;;;;;-4.02;59.87;103217.75;84058;1327;1002994;-71
2022/03/21 00:40:59;;;;;;;83.90;31.60;;;;;;;-4.03;59.77;103215.67;84686;1326;22659;-76
2022/03/21 00:43:09;;;;;;;86.90;34.50;;;;;;;-4.04;60.10;103216.82;84756;1325;22801;-77
2022/03/21 00:45:19;;;;;;;75.00;32.40;;;;;;;-4.03;60.11;103222.98;84777;1326;22573;-72
2022/03/21 00:47:25;;;;;;;;;;;;;;;-4.03;60.20;103223.37;84812;1322;22752;-72
2022/03/21 00:49:33;;;;;;;74.00;31.90;;;;;;;-4.03;60.18;103223.84;84743;1326;24213;-76
2022/03/21 00:56:26;;;;;;;82.60;33.80;;;;;;;-3.95;60.24;103220.11;81903;1370;545581;-77
2022/03/21 00:58:35;;;;;;;73.00;30.80;;;;;;;-4.00;60.14;103217.21;84226;1339;25682;-77
2022/03/21 01:00:44;;;;;;;83.80;32.60;;;;;;;-4.01;60.21;103219.17;84240;1340;22637;-77
2022/03/21 01:02:53;;;;;;;82.60;33.30;;;;;;;-4.04;60.29;103219.52;83502;1340;1003458;-77
2022/03/21 01:05:05;;;;;;;91.30;33.40;;;;;;;-4.06;60.29;103219.21;84093;1340;22591;-77
2022/03/21 01:07:14;;;;;;;74.20;29.20;;;;;;;-4.08;60.31;103217.20;83537;1338;1003849;-77
2022/03/21 01:09:23;;;;;;;75.90;31.00;;;;;;;-4.08;60.35;103217.01;83955;1339;282986;-77
2022/03/21 01:11:32;;;;;;;75.50;33.50;;;;;;;-4.10;60.38;103215.35;84320;1336;24363;-76
2022/03/21 01:13:44;;;;;;;72.60;29.10;;;;;;;-4.13;60.17;103213.65;84397;1336;24181;-76
2022/03/21 01:15:52;;;;;;;81.60;30.00;;;;;;;-4.17;60.35;103209.45;84568;1331;22659;-77
2022/03/21 01:18:04;;;;;;;92.80;34.50;;;;;;;-4.21;60.60;103207.33;84547;1330;25543;-72
2022/03/21 01:20:20;;;;;;;77.20;31.30;;;;;;;-4.25;60.94;103210.76;84541;1330;22582;-72
2022/03/21 01:22:28;;;;;;;82.30;30.50;;;;;;;-4.29;60.74;103208.95;84600;1330;22614;-72
2022/03/21 01:24:41;;;;;;;77.40;30.00;;;;;;;-4.33;60.77;103207.36;84568;1332;22587;-75
2022/03/21 01:26:51;;;;;;;80.70;30.90;;;;;;;-4.35;60.93;103202.22;84526;1333;22629;-77
2022/03/21 01:28:58;;;;;;;;;;;;;;;-4.39;61.23;103201.98;84596;1328;23420;-75
2022/03/21 01:31:06;;;;;;;68.10;29.30;;;;;;;-4.44;61.72;103199.41;84589;1330;22636;-76
2022/03/21 01:33:14;;;;;;;70.50;29.80;;;;;;;-4.46;61.92;103194.53;84597;1330;22591;-77
2022/03/21 01:35:21;;;;;;;72.20;28.80;;;;;;;-4.47;62.10;103197.37;84588;1331;22850;-77
2022/03/21 01:37:29;;;;;;;80.00;31.60;;;;;;;-4.46;61.98;103197.06;84606;1329;25950;-77
2022/03/21 01:39:36;;;;;;;78.90;32.00;;;;;;;-4.45;62.22;103197.81;84599;1330;22809;-77
2022/03/21 01:41:44;;;;;;;89.00;32.20;;;;;;;-4.42;62.33;103196.33;84584;1330;22602;-77
2022/03/21 01:44:01;;;;;;;76.30;32.50;;;;;;;-4.40;62.31;103194.25;84586;1330;26690;-77
2022/03/21 01:46:09;;;;;;;78.90;32.90;;;;;;;-4.38;62.44;103195.87;84548;1330;24997;-72
2022/03/21 01:48:19;;;;;;;70.80;30.80;;;;;;;-4.37;62.20;103194.64;83864;1330;1003701;-72
2022/03/21 01:50:29;;;;;;;87.30;32.30;;;;;;;-4.36;62.24;103190.42;84597;1330;22669;-77
2022/03/21 01:52:36;;;;;;;;;;;;;;;-4.37;62.28;103193.44;84578;1330;22730;-77
2022/03/21 01:57:11;;;;;;;80.60;33.00;;;;;;;-4.41;62.19;103188.54;84545;1326;22707;-76
2022/03/21 01:59:19;;;;;;;67.70;29.90;;;;;;;-4.42;62.16;103186.42;84597;1328;22598;-72
2022/03/21 02:01:26;;;;;;;70.80;33.70;;;;;;;-4.44;62.29;103184.75;83886;1330;1003285;-72
2022/03/21 02:03:33;;;;;;;82.70;32.70;;;;;;;-4.48;62.26;103183.14;84584;1332;23873;-72
2022/03/21 02:05:41;;;;;;;76.20;33.30;;;;;;;-4.50;62.07;103186.20;84595;1330;24954;-72
2022/03/21 02:07:50;;;;;;;86.00;33.50;;;;;;;-4.53;62.33;103185.34;84564;1331;24317;-72
2022/03/21 02:09:59;;;;;;;86.60;35.90;;;;;;;-4.56;62.24;103183.57;84577;1328;22612;-76
2022/03/21 02:12:12;;;;;;;67.30;30.70;;;;;;;-4.60;62.31;103185.38;84541;1332;23928;-77
2022/03/21 02:14:21;;;;;;;77.90;32.50;;;;;;;-4.64;62.49;103188.01;84604;1330;22661;-77
2022/03/21 02:16:32;;;;;;;79.50;32.20;;;;;;;-4.67;62.59;103192.72;84587;1331;22649;-76
2022/03/21 02:18:41;;;;;;;83.90;36.70;;;;;;;-4.70;62.56;103193.38;84573;1332;22833;-76
2022/03/21 02:20:53;;;;;;;98.00;41.10;;;;;;;-4.72;62.73;103194.64;84554;1333;23938;-76
2022/03/21 02:23:08;;;;;;;92.30;34.50;;;;;;;-4.70;63.00;103198.13;84580;1330;25330;-75
2022/03/21 02:25:31;;;;;;;88.60;36.10;;;;;;;-4.68;62.78;103195.27;84596;1330;22934;-77
2022/03/21 02:27:43;;;;;;;100.30;37.70;;;;;;;-4.66;63.10;103192.45;84556;1324;22603;-77
2022/03/21 02:29:55;;;;;;;80.50;34.00;;;;;;;-4.65;62.93;103191.84;84595;1330;22767;-74
2022/03/21 02:32:05;;;;;;;85.50;34.50;;;;;;;-4.64;63.04;103189.71;84587;1329;26173;-76
2022/03/21 02:34:15;;;;;;;;;;;;;;;-4.63;63.26;103189.58;83877;1332;1003721;-74
2022/03/21 02:36:24;;;;;;;91.90;32.70;;;;;;;-4.67;63.37;103190.65;84581;1330;23922;-76
2022/03/21 02:38:36;;;;;;;77.50;34.90;;;;;;;-4.69;63.45;103194.81;84591;1328;22951;-76
2022/03/21 02:40:45;;;;;;;89.50;35.30;;;;;;;-4.70;63.51;103197.13;84598;1330;23142;-72
2022/03/21 02:42:55;;;;;;;88.10;35.50;;;;;;;-4.70;63.25;103198.30;84532;1333;24497;-71
2022/03/21 02:45:07;;;;;;;81.90;32.70;;;;;;;-4.70;63.22;103195.59;84549;1328;22673;-76
2022/03/21 02:47:17;;;;;;;71.80;31.90;;;;;;;-4.71;63.31;103196.71;84567;1331;22592;-76
2022/03/21 02:49:28;;;;;;;72.00;31.30;;;;;;;-4.73;63.19;103195.21;84543;1332;23996;-72
2022/03/21 02:51:40;;;;;;;73.10;31.50;;;;;;;-4.75;63.27;103195.75;84600;1328;22583;-71
2022/03/21 02:53:52;;;;;;;70.40;31.40;;;;;;;-4.77;63.51;103198.83;83903;1331;1003300;-71
2022/03/21 02:56:04;;;;;;;82.10;33.50;;;;;;;-4.80;63.49;103196.60;83867;1330;1002954;-72
2022/03/21 02:58:16;;;;;;;66.90;32.30;;;;;;;-4.82;63.65;103194.90;84538;1332;22688;-71
2022/03/21 03:00:28;;;;;;;74.40;32.90;;;;;;;-4.86;63.78;103190.38;83980;1331;1003401;-72
2022/03/21 03:02:37;;;;;;;75.60;33.60;;;;;;;-4.89;63.87;103191.70;84711;1327;22736;-71
2022/03/21 03:04:49;;;;;;;73.00;33.50;;;;;;;-4.91;64.02;103192.75;83974;1329;1003352;-76
2022/03/21 03:07:01;;;;;;;73.10;34.10;;;;;;;-4.93;63.98;103192.98;83942;1329;1003903;-77
2022/03/21 03:09:13;;;;;;;76.60;35.10;;;;;;;-4.93;64.14;103196.17;84530;1333;24254;-72
2022/03/21 03:11:25;;;;;;;74.90;32.00;;;;;;;-4.93;64.13;103193.65;84716;1327;24174;-72
2022/03/21 03:13:34;;;;;;;75.80;34.20;;;;;;;-4.90;64.47;103196.02;84702;1327;22569;-71
2022/03/21 03:15:47;;;;;;;72.80;33.70;;;;;;;-4.90;64.57;103192.48;84686;1325;22851;-72
2022/03/21 03:18:00;;;;;;;74.60;32.70;;;;;;;-4.88;64.47;103191.09;84710;1325;22858;-72
2022/03/21 03:20:14;;;;;;;73.00;36.60;;;;;;;-4.87;64.51;103188.29;84706;1328;22581;-71
2022/03/21 03:22:26;;;;;;;69.20;34.40;;;;;;;-4.86;64.70;103188.84;83946;1328;1003777;-71
2022/03/21 03:24:35;;;;;;;69.60;34.30;;;;;;;-4.88;64.70;103189.90;84703;1330;22849;-75
2022/03/21 03:26:46;;;;;;;78.60;37.80;;;;;;;-4.87;64.69;103191.63;84707;1329;23917;-77
2022/03/21 03:28:59;;;;;;;82.80;37.60;;;;;;;-4.87;64.70;103189.31;84645;1330;22590;-77
2022/03/21 03:31:08;;;;;;;80.30;37.40;;;;;;;-4.85;64.77;103189.20;84712;1327;22585;-75
2022/03/21 03:33:18;;;;;;;80.40;38.00;;;;;;;-4.87;64.97;103183.98;84674;1330;25305;-76
2022/03/21 03:35:27;;;;;;;80.00;37.10;;;;;;;-4.89;64.88;103184.70;84014;1327;1002827;-77
2022/03/21 03:37:38;;;;;;;83.10;38.80;;;;;;;-4.90;64.83;103183.77;84649;1329;24319;-77
2022/03/21 03:39:48;;;;;;;80.50;37.90;;;;;;;-4.92;64.87;103183.45;84719;1327;25471;-72
2022/03/21 03:42:00;;;;;;;70.10;35.40;;;;;;;-4.96;65.00;103180.99;83962;1328;1003651;-72
2022/03/21 03:44:10;;;;;;;80.40;35.80;;;;;;;-4.99;65.03;103179.75;84586;1329;22812;-75
2022/03/21 03:46:22;;;;;;;79.30;37.30;;;;;;;-5.02;65.04;103179.56;83948;1328;1003214;-75
2022/03/21 03:48:31;;;;;;;78.30;33.70;;;;;;;-5.06;64.98;103176.92;84659;1330;22700;-75
2022/03/21 03:50:40;;;;;;;70.50;34.30;;;;;;;-5.09;65.26;103178.40;84736;1324;24805;-71
2022/03/21 03:52:48;;;;;;;75.00;36.20;;;;;;;-5.10;65.20;103180.84;84678;1329;25474;-72
2022/03/21 03:54:57;;;;;;;75.10;33.60;;;;;;;-5.10;65.14;103182.05;84687;1329;22687;-72
2022/03/21 03:57:06;;;;;;;81.60;36.00;;;;;;;-5.10;65.40;103176.94;84707;1327;22598;-72
2022/03/21 03:59:16;;;;;;;76.20;35.00;;;;;;;-5.10;65.58;103183.06;84708;1330;22609;-72
2022/03/21 04:01:25;;;;;;;71.00;34.60;;;;;;;-5.10;65.67;103179.33;84657;1329;22935;-72
2022/03/21 04:03:46;;;;;;;80.30;34.30;;;;;;;-5.09;65.77;103178.57;84683;1329;22755;-71
2022/03/21 04:05:58;;;;;;;84.10;37.70;;;;;;;-5.09;65.84;103175.66;84679;1329;24252;-76
2022/03/21 04:08:09;;;;;;;85.30;36.70;;;;;;;-5.10;65.75;103174.06;84665;1324;22594;-76
2022/03/21 04:10:18;;;;;;;82.20;38.00;;;;;;;-5.11;65.77;103175.16;84724;1321;22586;-76
2022/03/21 04:12:27;;;;;;;81.90;35.80;;;;;;;-5.11;65.82;103175.34;84730;1327;22617;-77
2022/03/21 04:14:35;;;;;;;79.10;38.00;;;;;;;-5.13;65.95;103175.21;84726;1329;25437;-74
2022/03/21 04:16:45;;;;;;;82.00;36.40;;;;;;;-5.15;65.87;103170.45;84739;1327;23914;-74
2022/03/21 04:18:54;;;;;;;79.90;39.00;;;;;;;-5.16;65.84;103170.37;84717;1327;22704;-75
2022/03/21 04:21:03;;;;;;;89.50;38.70;;;;;;;-5.18;65.95;103169.76;84668;1329;23945;-76
2022/03/21 04:23:12;;;;;;;77.30;36.70;;;;;;;-5.21;65.84;103167.32;84731;1327;22819;-76
2022/03/21 04:25:21;;;;;;;80.60;38.80;;;;;;;-5.23;66.07;103169.07;83972;1329;1003415;-75
2022/03/21 04:27:33;;;;;;;81.40;38.00;;;;;;;-5.25;66.06;103173.86;84725;1327;22626;-76
2022/03/21 04:29:42;;;;;;;82.60;39.20;;;;;;;-5.27;66.07;103178.14;84743;1327;22863;-71
2022/03/21 04:31:51;;;;;;;85.50;38.60;;;;;;;-5.28;66.34;103174.98;84661;1329;25275;-70
2022/03/21 04:34:03;;;;;;;86.30;38.70;;;;;;;-5.28;66.45;103176.67;84661;1330;26593;-76
2022/03/21 04:36:13;;;;;;;81.20;38.40;;;;;;;-5.28;66.49;103172.56;84658;1330;22782;-78
2022/03/21 04:38:22;;;;;;;88.40;37.30;;;;;;;-5.28;66.65;103175.84;84748;1329;23516;-78
2022/03/21 04:40:31;;;;;;;81.30;39.10;;;;;;;-5.25;66.55;103175.23;84684;1325;22580;-78
2022/03/21 04:42:41;;;;;;;95.50;44.10;;;;;;;-5.22;66.77;103174.27;84735;1330;22644;-78
2022/03/21 04:44:50;;;;;;;93.10;40.40;;;;;;;-5.19;66.73;103174.80;84687;1325;22691;-70
2022/03/21 04:46:59;;;;;;;94.10;41.40;;;;;;;-5.16;66.78;103174.97;84011;1327;1002607;-70
2022/03/21 04:49:08;;;;;;;88.70;44.80;;;;;;;-5.14;66.82;103174.78;84661;1328;23871;-76
2022/03/21 04:51:17;;;;;;;93.10;43.50;;;;;;;-5.12;66.82;103175.96;84704;1327;22583;-76
2022/03/21 04:53:29;;;;;;;88.40;42.60;;;;;;;-5.11;66.71;103181.98;84663;1329;22615;-78
2022/03/21 04:55:38;;;;;;;103.30;43.90;;;;;;;-5.09;66.78;103180.57;84665;1329;22608;-78
2022/03/21 04:57:50;;;;;;;98.20;42.00;;;;;;;-5.07;66.64;103183.27;84678;1328;22687;-78
2022/03/21 05:00:03;;;;;;;115.00;49.20;;;;;;;-5.05;66.80;103182.88;84722;1329;25306;-71
2022/03/21 05:02:12;;;;;;;110.00;46.70;;;;;;;-5.04;66.94;103182.66;84679;1329;22757;-72
2022/03/21 05:04:22;;;;;;;108.70;45.00;;;;;;;-5.02;66.93;103188.58;84690;1323;25287;-78
2022/03/21 05:06:34;;;;;;;115.20;43.80;;;;;;;-5.00;66.66;103187.72;84021;1327;1002949;-78
2022/03/21 05:08:44;;;;;;;105.40;43.60;;;;;;;-4.97;67.02;103187.21;84705;1327;24573;-78
2022/03/21 05:10:53;;;;;;;90.80;43.20;;;;;;;-4.94;67.22;103188.62;84692;1327;25266;-71
2022/03/21 05:13:01;;;;;;;102.40;43.70;;;;;;;-4.89;67.03;103189.80;83942;1330;1003707;-71
2022/03/21 05:15:14;;;;;;;93.10;41.80;;;;;;;-4.84;67.19;103188.81;84678;1329;22630;-77
2022/03/21 05:17:23;;;;;;;102.20;43.60;;;;;;;-4.76;67.17;103189.76;84694;1328;25445;-78
2022/03/21 05:19:34;;;;;;;78.70;35.80;;;;;;;-4.68;67.26;103184.49;84729;1327;22624;-77
2022/03/21 05:21:44;;;;;;;101.60;41.60;;;;;;;-4.59;67.36;103183.73;84561;1331;22608;-78
2022/03/21 05:31:18;;;;;;;101.80;43.40;;;;;;;-3.90;66.82;103193.04;84697;1327;22950;-78
2022/03/21 05:35:55;;;;;;;99.30;41.70;;;;;;;-3.72;66.66;103194.56;84703;1327;24251;-70
2022/03/21 05:38:03;;;;;;;104.40;44.60;;;;;;;-3.64;66.74;103188.59;84730;1330;25434;-71
2022/03/21 05:42:40;;;;;;;108.50;44.90;;;;;;;-3.44;66.59;103195.14;84648;1329;24221;-79
2022/03/21 05:44:49;;;;;;;98.80;44.60;;;;;;;-3.33;66.48;103195.64;84696;1329;22578;-70
2022/03/21 05:47:01;;;;;;;99.60;46.20;;;;;;;-3.25;66.68;103193.83;84705;1325;22682;-70
2022/03/21 05:49:13;;;;;;;96.40;43.60;;;;;;;-3.17;66.64;103190.73;84022;1327;1002784;-71
2022/03/21 05:51:27;;;;;;;103.40;45.40;;;;;;;-3.04;66.54;103192.39;84716;1327;22819;-70
2022/03/21 05:53:42;;;;;;;90.10;42.00;;;;;;;-2.70;66.90;103192.13;84683;1329;22593;-70
2022/03/21 05:55:55;;;;;;;92.40;46.60;;;;;;;-1.88;67.03;103190.48;84740;1327;22877;-70
2022/03/21 05:58:05;;;;;;;90.20;43.90;;;;;;;-0.68;68.85;103188.25;84696;1329;22591;-70
2022/03/21 06:00:23;;;;;;;79.30;41.20;;;;;;;0.85;68.62;103180.80;84689;1330;22613;-78
2022/03/21 06:02:32;;;;;;;81.80;41.60;;;;;;;2.29;65.20;103174.80;84663;1330;22601;-77
2022/03/21 06:04:42;;;;;;;87.90;42.50;;;;;;;3.52;62.72;103174.68;84737;1324;24071;-72
2022/03/21 06:06:52;;;;;;;;;;;;;;;4.72;59.17;103174.20;84675;1329;22679;-72
2022/03/21 06:09:01;;;;;;;84.80;42.20;;;;;;;5.90;56.06;103169.15;84747;1327;22797;-79
2022/03/21 06:11:09;;;;;;;80.60;42.00;;;;;;;6.90;52.90;103168.80;84690;1327;24254;-79
2022/03/21 06:13:21;;;;;;;87.80;46.20;;;;;;;7.72;49.92;103166.80;84711;1327;24258;-81
2022/03/21 06:15:34;;;;;;;96.80;48.00;;;;;;;8.63;47.18;103162.81;84705;1327;23843;-72
2022/03/21 06:17:44;;;;;;;100.20;46.70;;;;;;;9.48;45.26;103167.40;84654;1329;22599;-72
2022/03/21 06:19:53;;;;;;;95.60;47.20;;;;;;;10.28;43.19;103164.70;84677;1325;23918;-83
2022/03/21 06:22:06;;;;;;;90.00;46.50;;;;;;;10.94;41.01;103163.56;84711;1325;22729;-81
2022/03/21 06:24:16;;;;;;;100.00;50.30;;;;;;;11.16;39.84;103164.20;84702;1331;22852;-72
2022/03/21 06:26:28;;;;;;;117.10;54.60;;;;;;;11.29;38.70;103165.83;84693;1329;22587;-72
2022/03/21 06:28:36;;;;;;;120.60;61.30;;;;;;;11.51;37.96;103163.96;84714;1325;22633;-72
2022/03/21 06:30:47;;;;;;;98.00;50.60;;;;;;;11.77;36.83;103165.09;84714;1327;22693;-83
2022/03/21 06:32:55;;;;;;;;;;;;;;;12.03;36.19;103170.58;84726;1327;22579;-83
2022/03/21 06:35:01;;;;;;;103.30;51.90;;;;;;;12.21;35.10;103164.10;84685;1324;22583;-83
2022/03/21 06:37:08;;;;;;;92.80;50.40;;;;;;;12.50;34.14;103166.53;84728;1327;22724;-78
2022/03/21 06:39:15;;;;;;;87.70;49.10;;;;;;;12.42;32.99;103165.67;84732;1331;22604;-71
2022/03/21 06:41:22;;;;;;;85.70;47.40;;;;;;;12.11;32.79;103166.55;84688;1329;22601;-71
2022/03/21 06:43:29;;;;;;;87.50;47.50;;;;;;;12.25;32.43;103166.71;84683;1327;25271;-71
2022/03/21 06:45:39;;;;;;;86.70;49.40;;;;;;;12.48;31.93;103167.94;84734;1327;22608;-82
2022/03/21 06:47:45;;;;;;;84.30;47.60;;;;;;;12.88;31.93;103168.02;84654;1323;22816;-80
2022/03/21 06:49:52;;;;;;;107.90;55.30;;;;;;;13.42;30.88;103172.21;84712;1326;22622;-71
2022/03/21 06:52:02;;;;;;;87.70;50.10;;;;;;;13.67;30.20;103170.67;84683;1327;22609;-72
2022/03/21 06:54:10;;;;;;;86.90;46.70;;;;;;;14.17;30.12;103170.66;84731;1327;22588;-81
2022/03/21 06:56:16;;;;;;;76.10;44.70;;;;;;;14.59;29.27;103169.60;84705;1331;22737;-81
2022/03/21 06:58:23;;;;;;;89.80;49.50;;;;;;;14.96;28.83;103171.48;84679;1329;23920;-81
2022/03/21 07:00:29;;;;;;;87.20;49.30;;;;;;;15.31;27.60;103171.41;84697;1328;22607;-82
2022/03/21 07:02:39;;;;;;;74.10;44.30;;;;;;;15.49;27.16;103175.20;84700;1330;22602;-80
2022/03/21 07:04:46;;;;;;;75.80;44.90;;;;;;;15.71;26.87;103172.45;84670;1324;22757;-71
2022/03/21 07:06:53;;;;;;;81.30;45.50;;;;;;;15.89;26.68;103174.84;84718;1327;24564;-71
2022/03/21 07:09:00;;;;;;;100.00;49.50;;;;;;;16.22;26.37;103174.13;84644;1330;25435;-80
2022/03/21 07:11:12;;;;;;;79.50;44.50;;;;;;;16.38;25.30;103173.14;84655;1327;22862;-81
2022/03/21 07:13:19;;;;;;;72.40;40.40;;;;;;;16.43;25.85;103170.05;84720;1329;25434;-82
2022/03/21 07:15:26;;;;;;;78.10;43.50;;;;;;;16.80;25.01;103171.32;84733;1326;22591;-72
2022/03/21 07:17:36;;;;;;;67.10;42.80;;;;;;;16.92;24.04;103173.58;84749;1327;22890;-71
2022/03/21 07:19:45;;;;;;;73.30;42.00;;;;;;;16.92;24.01;103171.63;84717;1326;22583;-81
2022/03/21 07:21:52;;;;;;;69.60;41.00;;;;;;;17.12;24.26;103173.00;84726;1326;22621;-82
2022/03/21 07:23:58;;;;;;;67.60;39.40;;;;;;;17.69;24.22;103170.85;84709;1330;22583;-71
2022/03/21 07:26:05;;;;;;;143.40;88.70;;;;;;;18.34;23.02;103171.91;84720;1323;24072;-72
2022/03/21 07:28:12;;;;;;;66.70;46.20;;;;;;;18.86;22.64;103173.39;84749;1327;24191;-80
2022/03/21 07:30:18;;;;;;;60.60;36.50;;;;;;;19.36;22.19;103172.45;84772;1326;25339;-83
2022/03/21 07:32:28;;;;;;;48.70;31.20;;;;;;;19.80;21.35;103167.56;84732;1327;22576;-82
2022/03/21 07:34:34;;;;;;;56.60;35.00;;;;;;;20.18;20.96;103163.27;84731;1328;24225;-71
2022/03/21 07:36:41;;;;;;;54.00;34.40;;;;;;;20.54;20.36;103167.36;84753;1323;24352;-71
2022/03/21 07:38:48;;;;;;;52.00;31.70;;;;;;;20.84;19.89;103165.05;84731;1326;22680;-73
2022/03/21 07:40:57;;;;;;;42.50;28.50;;;;;;;21.16;19.64;103166.34;84742;1323;24244;-72
2022/03/21 07:43:04;;;;;;;58.70;34.30;;;;;;;21.41;19.11;103165.94;84737;1326;25300;-70
2022/03/21 07:47:35;;;;;;;45.60;28.30;;;;;;;21.90;17.96;103160.55;84710;1328;23937;-84
2022/03/21 07:49:45;;;;;;;38.00;27.30;;;;;;;22.10;17.75;103164.01;84645;1328;22832;-82
2022/03/21 07:51:55;;;;;;;45.60;29.20;;;;;;;22.41;18.00;103162.86;84722;1319;22683;-81
2022/03/21 07:54:04;;;;;;;45.30;28.80;;;;;;;22.78;17.50;103162.64;84715;1330;22655;-74
2022/03/21 07:56:14;;;;;;;41.50;27.50;;;;;;;23.09;17.12;103165.90;84731;1328;25293;-72
2022/03/21 07:58:23;;;;;;;50.10;30.40;;;;;;;23.45;16.87;103168.83;84718;1326;22854;-72
2022/03/21 08:00:32;;;;;;;53.50;32.60;;;;;;;23.69;15.94;103167.70;84753;1327;22577;-72
2022/03/21 08:02:41;;;;;;;41.40;26.50;;;;;;;23.81;15.63;103165.69;84716;1326;22668;-72
2022/03/21 08:04:50;;;;;;;49.30;31.00;;;;;;;24.00;16.00;103162.02;84746;1326;23933;-72
2022/03/21 08:07:01;;;;;;;33.90;23.40;;;;;;;24.34;15.28;103158.34;84741;1326;22666;-72
2022/03/21 08:09:11;;;;;;;41.40;27.40;;;;;;;24.53;15.60;103154.89;84750;1327;22834;-82
2022/03/21 08:11:17;;;;;;;;;;;;;;;24.81;15.38;103156.08;84688;1327;23194;-81
2022/03/21 08:13:25;;;;;;;34.80;23.10;;;;;;;25.05;14.93;103155.45;84716;1327;22593;-82
2022/03/21 08:15:33;;;;;;;33.70;22.20;;;;;;;25.37;14.77;103150.11;84726;1329;22623;-83
2022/03/21 08:17:50;;;;;;;35.90;23.20;;;;;;;25.60;14.47;103148.77;84728;1327;25435;-83
2022/03/21 08:19:57;;;;;;;39.10;24.60;;;;;;;25.62;14.04;103156.54;84719;1322;22766;-82
2022/03/21 08:22:05;;;;;;;31.50;23.30;;;;;;;25.54;13.98;103154.83;84714;1328;24386;-72
2022/03/21 08:24:13;;;;;;;34.70;22.60;;;;;;;25.79;14.01;103158.95;84739;1327;25288;-72
2022/03/21 08:26:19;;;;;;;37.20;23.10;;;;;;;25.71;13.15;103156.59;84729;1326;22592;-71
2022/03/21 08:28:28;;;;;;;32.30;20.70;;;;;;;25.61;13.97;103154.42;84690;1328;22604;-72
2022/03/21 08:30:37;;;;;;;33.00;22.50;;;;;;;25.89;13.20;103151.98;84706;1332;24353;-71
2022/03/21 08:32:47;;;;;;;29.20;22.40;;;;;;;25.86;13.13;103154.77;84726;1326;22653;-71
2022/03/21 08:34:54;;;;;;;;;;;;;;;25.59;13.18;103155.14;84758;1330;22879;-80
2022/03/21 08:37:03;;;;;;;24.30;19.20;;;;;;;25.61;13.36;103151.42;84722;1326;22635;-72
2022/03/21 08:39:11;;;;;;;26.70;19.90;;;;;;;25.63;13.18;103145.20;84696;1325;23841;-72
2022/03/21 08:41:23;;;;;;;24.20;17.00;;;;;;;25.71;13.12;103145.13;84721;1328;22578;-72
2022/03/21 08:43:31;;;;;;;21.50;18.80;;;;;;;25.84;13.06;103141.70;84686;1324;22686;-70
2022/03/21 08:45:41;;;;;;;26.10;18.80;;;;;;;26.18;12.98;103144.46;84718;1326;22595;-83
2022/03/21 08:47:51;;;;;;;28.50;17.00;;;;;;;26.22;12.56;103140.86;84727;1327;22644;-82
2022/03/21 08:49:59;;;;;;;19.90;15.40;;;;;;;25.90;12.18;103141.15;84708;1329;22588;-71
2022/03/21 08:52:13;;;;;;;21.80;14.60;;;;;;;25.73;12.48;103139.61;84733;1326;22831;-80
2022/03/21 08:54:21;;;;;;;25.10;18.10;;;;;;;25.79;12.50;103135.94;84786;1327;22609;-81
2022/03/21 08:56:33;;;;;;;24.40;17.70;;;;;;;25.90;12.27;103131.88;84705;1325;22619;-82
2022/03/21 08:58:42;;;;;;;23.60;16.20;;;;;;;26.06;12.48;103134.15;84731;1324;22580;-83
2022/03/21 09:00:51;;;;;;;18.40;16.30;;;;;;;26.18;12.30;103128.01;84688;1329;24169;-83
2022/03/21 09:03:01;;;;;;;22.00;15.30;;;;;;;26.35;12.02;103127.91;84727;1327;22637;-80
2022/03/21 09:05:12;;;;;;;26.30;16.60;;;;;;;26.43;12.20;103132.44;84710;1328;25256;-80
2022/03/21 09:07:24;;;;;;;23.70;18.60;;;;;;;26.45;11.69;103128.54;84711;1331;22607;-72
2022/03/21 09:09:33;;;;;;;18.50;15.50;;;;;;;26.27;12.05;103127.11;84503;1329;334546;-80
2022/03/21 09:11:42;;;;;;;21.80;15.60;;;;;;;26.35;12.04;103124.88;84710;1329;22598;-82
2022/03/21 09:13:51;;;;;;;35.00;18.40;;;;;;;26.32;12.15;103126.79;84665;1329;22985;-83
2022/03/21 09:15:59;;;;;;;;;;;;;;;26.09;11.69;103122.66;84738;1326;23884;-71
2022/03/21 09:18:08;;;;;;;27.50;19.30;;;;;;;25.80;11.89;103124.77;84731;1326;22681;-71
2022/03/21 09:20:20;;;;;;;25.20;18.20;;;;;;;25.84;12.26;103120.05;84744;1327;22587;-71
2022/03/21 09:22:32;;;;;;;22.90;16.60;;;;;;;26.13;12.53;103124.79;84689;1330;22596;-80
2022/03/21 09:24:46;;;;;;;24.20;16.90;;;;;;;26.54;12.17;103128.38;84777;1327;22606;-82
2022/03/21 09:26:55;;;;;;;26.60;18.30;;;;;;;26.60;11.75;103131.58;84705;1329;22610;-82
2022/03/21 09:29:05;;;;;;;22.50;15.80;;;;;;;26.45;11.16;103129.64;84762;1330;22837;-72
2022/03/21 09:31:13;;;;;;;;;;;;;;;26.14;11.74;103133.84;84745;1329;22585;-71
2022/03/21 09:33:25;;;;;;;22.00;15.70;;;;;;;25.88;11.54;103132.35;84746;1326;22924;-72
2022/03/21 09:35:38;;;;;;;20.40;16.10;;;;;;;25.75;11.72;103130.21;84589;1332;22599;-72
2022/03/21 09:37:49;;;;;;;18.30;16.20;;;;;;;25.68;12.18;103127.72;84749;1327;22576;-72
2022/03/21 09:40:01;;;;;;;26.00;16.00;;;;;;;25.83;11.76;103126.23;84719;1327;24272;-82
2022/03/21 09:42:14;;;;;;;24.60;16.10;;;;;;;25.66;11.72;103126.81;84684;1331;25444;-81
2022/03/21 09:44:25;;;;;;;18.80;13.90;;;;;;;25.52;11.85;103126.02;84757;1327;22585;-82
2022/03/21 09:46:34;;;;;;;23.20;15.60;;;;;;;25.52;12.09;103121.75;84706;1330;22853;-80
2022/03/21 09:48:43;;;;;;;20.20;16.00;;;;;;;25.52;11.92;103122.05;84743;1327;22768;-80
2022/03/21 09:50:56;;;;;;;19.80;15.30;;;;;;;25.44;12.08;103120.21;84725;1330;23975;-80
2022/03/21 09:53:08;;;;;;;21.90;16.50;;;;;;;25.45;12.13;103119.10;84743;1327;22917;-81
2022/03/21 09:55:17;;;;;;;21.50;13.60;;;;;;;25.31;12.24;103116.48;84704;1329;23914;-72
2022/03/21 09:57:28;;;;;;;19.50;15.60;;;;;;;25.07;12.22;103116.77;84742;1330;22718;-71
2022/03/21 09:59:37;;;;;;;22.40;17.10;;;;;;;24.61;12.21;103110.91;84764;1329;25438;-82
2022/03/21 10:01:49;;;;;;;21.70;16.80;;;;;;;24.12;12.67;103110.61;84708;1330;23043;-82
2022/03/21 10:04:01;;;;;;;22.50;14.30;;;;;;;23.55;12.76;103109.86;84718;1330;22591;-78
2022/03/21 10:06:28;;;;;;;17.30;13.30;;;;;;;22.81;12.89;103113.05;84701;1331;22607;-82
2022/03/21 10:08:40;;;;;;;19.90;13.30;;;;;;;22.02;13.53;103108.02;84728;1330;22709;-81
2022/03/21 10:11:01;;;;;;;19.80;13.40;;;;;;;21.41;13.79;103107.29;84733;1329;23890;-81
2022/03/21 10:13:13;;;;;;;27.30;16.40;;;;;;;20.73;14.30;103106.03;84760;1326;22585;-81